Main page
METAR-TAF:

METAR-TAF

Airports :

David Wayne Hooks Memorial Airport

Houston / Tomball, Texas, United States

latitude: 30-04-03N, longitude: 095-33-22W, elevation: 151 ft

Current weather observation

The report was made 7 minutes ago, at 19:53 UTC
Wind 3 mph from the West/Northwest
Temperature 93°F
Humidity 47%
Pressure 29.91 in. Hg
Visibility: 10 miles
Clear sky

METAR: KDWH 141953Z 29003KT 10SM CLR 34/21 A2991 RMK AO2 SLP125 T03390206

Time: 15:00 (20:00 UTC)


TAF: missing

Weather observations and forecasts of more than 4000 airports (METAR and TAF reports).

The available stations are represented by yellow and red dots on the map.

Hover mouse over dot to see the name of the station.

Then click to see weather observations and forecasts.

To change the map : click on the green buttons with a black cross to zoom in, on the green button with a dash to zoom out, or on the green arrows for adjacent maps.


METAR-TAF: